createdAt,value
2023-03-06T00:00:21.911Z,37.04
2023-03-06T00:02:49.363Z,37.06
2023-03-06T00:05:16.509Z,36.90
2023-03-06T00:07:43.725Z,37.55
2023-03-06T00:10:13.418Z,37.40
2023-03-06T00:12:40.654Z,36.81
2023-03-06T00:15:08.250Z,37.13
2023-03-06T00:17:35.927Z,37.26
2023-03-06T00:20:03.437Z,36.87
2023-03-06T00:22:30.567Z,37.21
2023-03-06T00:24:58.012Z,37.34
2023-03-06T00:27:26.356Z,38.15
2023-03-06T00:29:57.295Z,37.42
2023-03-06T00:32:24.975Z,37.12
2023-03-06T00:34:52.598Z,36.91
2023-03-06T00:37:19.965Z,36.54
2023-03-06T00:39:47.782Z,36.45
2023-03-06T00:42:15.880Z,36.06
2023-03-06T00:44:43.091Z,36.17
2023-03-06T00:47:11.258Z,36.16
2023-03-06T00:49:38.383Z,36.40
2023-03-06T00:52:05.729Z,36.84
2023-03-06T00:54:33.172Z,36.93
2023-03-06T00:57:00.306Z,37.06
2023-03-06T00:59:30.185Z,37.46
2023-03-06T01:01:57.699Z,37.51
2023-03-06T01:04:25.380Z,37.53
2023-03-06T01:06:52.521Z,37.83
2023-03-06T01:09:19.920Z,36.99
2023-03-06T01:11:47.037Z,36.94
2023-03-06T01:14:14.245Z,37.10
2023-03-06T01:16:42.932Z,36.48
2023-03-06T01:19:10.136Z,37.12
2023-03-06T01:21:37.257Z,37.10
2023-03-06T01:24:04.758Z,36.52
2023-03-06T01:26:31.909Z,36.41
2023-03-06T01:28:59.136Z,36.42
2023-03-06T01:31:28.773Z,36.37
2023-03-06T01:33:55.998Z,36.77
2023-03-06T01:36:23.660Z,36.83
2023-03-06T01:38:51.049Z,36.34
2023-03-06T01:41:18.219Z,37.21
2023-03-06T01:43:46.153Z,36.56
2023-03-06T01:46:16.612Z,37.01
2023-03-06T01:48:44.114Z,37.33
2023-03-06T01:51:12.270Z,36.72
2023-03-06T01:53:39.669Z,36.20
2023-03-06T01:56:06.994Z,36.84
2023-03-06T01:58:34.175Z,36.60
2023-03-06T02:01:01.669Z,37.28
2023-03-06T02:03:30.098Z,37.55
2023-03-06T02:05:57.218Z,36.95
2023-03-06T02:08:24.467Z,37.28
2023-03-06T02:10:59.360Z,36.97
2023-03-06T02:13:26.615Z,36.79
2023-03-06T02:15:54.094Z,37.16
2023-03-06T02:18:21.263Z,36.92
2023-03-06T02:20:55.711Z,37.20
2023-03-06T02:23:32.426Z,37.41
2023-03-06T02:25:59.788Z,37.63
2023-03-06T02:28:27.227Z,37.37
2023-03-06T02:30:54.806Z,37.34
2023-03-06T02:33:26.508Z,37.41
2023-03-06T02:35:54.694Z,37.44
2023-03-06T02:38:24.406Z,37.39
2023-03-06T02:40:52.340Z,38.14
2023-03-06T02:43:23.854Z,37.98
2023-03-06T02:45:51.309Z,37.28
2023-03-06T02:48:19.196Z,38.10
2023-03-06T02:50:46.922Z,37.61
2023-03-06T02:53:14.615Z,38.29
2023-03-06T02:55:41.801Z,38.35
2023-03-06T02:58:09.269Z,37.79
2023-03-06T03:00:36.500Z,38.24
2023-03-06T03:03:04.352Z,37.89
2023-03-06T03:05:31.745Z,37.56
2023-03-06T03:07:59.541Z,37.90
2023-03-06T03:10:27.725Z,38.23
2023-03-06T03:12:55.227Z,39.25
2023-03-06T03:15:23.698Z,38.25
2023-03-06T03:17:50.899Z,38.20
2023-03-06T03:20:19.376Z,38.92
2023-03-06T03:22:49.644Z,38.87
2023-03-06T03:25:16.876Z,37.68
2023-03-06T03:27:44.821Z,37.28
2023-03-06T03:30:12.643Z,37.86
2023-03-06T03:32:39.964Z,37.98
2023-03-06T03:35:07.875Z,39.12
2023-03-06T03:37:35.925Z,38.59
2023-03-06T03:40:05.035Z,38.24
2023-03-06T03:42:32.603Z,38.31
2023-03-06T03:44:59.905Z,38.17
2023-03-06T03:47:27.721Z,38.11
2023-03-06T03:49:55.313Z,38.66
2023-03-06T03:52:22.770Z,37.83
2023-03-06T03:54:49.897Z,37.73
2023-03-06T03:57:17.417Z,37.67
2023-03-06T03:59:45.348Z,38.41
2023-03-06T04:02:13.385Z,38.32
2023-03-06T04:04:42.034Z,37.88
2023-03-06T04:07:09.786Z,37.81
2023-03-06T04:09:37.252Z,37.94
2023-03-06T04:12:05.093Z,38.25
2023-03-06T04:14:32.635Z,38.05
2023-03-06T04:17:00.225Z,39.10
2023-03-06T04:19:27.675Z,38.49
2023-03-06T04:21:55.121Z,38.40
2023-03-06T04:24:22.362Z,38.52
2023-03-06T04:26:49.814Z,38.59
2023-03-06T04:29:17.404Z,38.59
2023-03-06T04:31:44.765Z,37.94
2023-03-06T04:34:12.262Z,37.98
2023-03-06T04:36:45.105Z,39.14
2023-03-06T04:39:13.102Z,38.48
2023-03-06T04:41:40.754Z,38.19
2023-03-06T04:44:08.193Z,38.35
2023-03-06T04:46:35.917Z,38.22
2023-03-06T04:49:03.805Z,38.26
2023-03-06T04:51:31.012Z,38.28
2023-03-06T04:53:58.460Z,38.45
2023-03-06T04:56:25.577Z,37.87
2023-03-06T04:58:52.741Z,38.61
2023-03-06T05:01:20.193Z,38.53
2023-03-06T05:03:47.369Z,38.33
2023-03-06T05:06:14.443Z,38.35
2023-03-06T05:08:42.067Z,37.91
2023-03-06T05:11:09.269Z,37.67
2023-03-06T05:13:36.385Z,38.45
2023-03-06T05:16:04.419Z,38.83
2023-03-06T05:18:32.092Z,38.35
2023-03-06T05:21:00.116Z,37.79
2023-03-06T05:23:28.175Z,37.79
2023-03-06T05:25:55.448Z,37.91
2023-03-06T05:28:22.682Z,38.15
2023-03-06T05:30:50.130Z,38.23
2023-03-06T05:33:17.355Z,38.34
2023-03-06T05:35:45.203Z,39.32
2023-03-06T05:38:12.668Z,39.01
2023-03-06T05:40:40.767Z,39.00
2023-03-06T05:43:08.279Z,39.49
2023-03-06T05:45:35.848Z,39.43
2023-03-06T05:48:03.167Z,38.80
2023-03-06T05:50:30.354Z,38.13
2023-03-06T05:52:57.795Z,39.00
2023-03-06T05:55:25.049Z,39.51
2023-03-06T05:57:52.242Z,39.27
2023-03-06T06:00:20.194Z,38.02
2023-03-06T06:02:47.587Z,38.23
2023-03-06T06:05:14.775Z,37.94
2023-03-06T06:07:41.919Z,37.87
2023-03-06T06:10:10.635Z,40.00
2023-03-06T06:12:37.934Z,38.83
2023-03-06T06:15:06.588Z,38.64
2023-03-06T06:17:34.015Z,37.97
2023-03-06T06:20:01.137Z,38.55
2023-03-06T06:22:28.335Z,38.20
2023-03-06T06:24:55.747Z,38.33
2023-03-06T06:27:22.895Z,39.12
2023-03-06T06:29:50.612Z,39.63
2023-03-06T06:32:18.087Z,39.14
2023-03-06T06:34:45.264Z,38.26
2023-03-06T06:37:12.381Z,38.02
2023-03-06T06:39:40.172Z,39.02
2023-03-06T06:42:28.529Z,38.32
2023-03-06T06:44:56.018Z,38.83
2023-03-06T06:47:25.201Z,39.50
2023-03-06T06:49:53.471Z,39.17
2023-03-06T06:52:21.056Z,39.07
2023-03-06T06:54:48.224Z,38.42
2023-03-06T06:57:15.723Z,38.87
2023-03-06T06:59:43.155Z,39.42
2023-03-06T07:02:13.694Z,38.87
2023-03-06T07:04:49.347Z,39.66
2023-03-06T07:07:28.015Z,39.09
2023-03-06T07:09:55.296Z,38.28
2023-03-06T07:12:22.459Z,38.06
2023-03-06T07:14:49.903Z,38.31
2023-03-06T07:17:17.079Z,38.52
2023-03-06T07:19:44.240Z,38.60
2023-03-06T07:22:11.621Z,38.59
2023-03-06T07:24:38.794Z,37.92
2023-03-06T07:27:06.214Z,38.18
2023-03-06T07:29:34.558Z,38.20
2023-03-06T07:32:01.845Z,38.26
2023-03-06T07:34:29.134Z,38.48
2023-03-06T07:36:56.560Z,39.52
2023-03-06T07:39:23.770Z,38.98
2023-03-06T07:41:52.215Z,38.74
2023-03-06T07:44:19.675Z,38.89
2023-03-06T07:46:46.884Z,39.22
2023-03-06T07:49:14.084Z,38.19
2023-03-06T07:51:41.528Z,38.36
2023-03-06T07:54:08.696Z,38.31
2023-03-06T07:56:35.850Z,38.24
2023-03-06T07:59:03.316Z,38.11
2023-03-06T08:01:30.534Z,38.41
2023-03-06T08:03:58.758Z,38.90
2023-03-06T08:06:26.608Z,38.53
2023-03-06T08:08:54.312Z,38.15
2023-03-06T08:11:23.022Z,38.08
2023-03-06T08:13:52.637Z,39.26
2023-03-06T08:16:23.617Z,40.45
2023-03-06T08:18:51.177Z,39.51
2023-03-06T08:21:19.304Z,39.31
2023-03-06T08:23:46.708Z,39.29
2023-03-06T08:26:15.308Z,39.36
2023-03-06T08:28:42.530Z,39.82
2023-03-06T08:31:10.442Z,39.64
2023-03-06T08:33:38.299Z,39.97
2023-03-06T08:36:05.487Z,38.91
2023-03-06T08:38:32.646Z,38.87
2023-03-06T08:41:00.090Z,38.51
2023-03-06T08:43:27.277Z,37.75
2023-03-06T08:45:55.566Z,36.58
2023-03-06T08:48:23.051Z,38.65
2023-03-06T08:50:50.535Z,38.31
2023-03-06T08:53:17.716Z,38.48
2023-03-06T08:55:45.158Z,37.75
2023-03-06T08:58:12.279Z,37.48
2023-03-06T09:00:39.512Z,38.10
2023-03-06T09:03:06.991Z,38.26
2023-03-06T09:05:34.286Z,37.91
2023-03-06T09:08:01.532Z,37.84
2023-03-06T09:10:29.101Z,37.68
2023-03-06T09:12:56.285Z,37.76
2023-03-06T09:15:23.790Z,38.26
2023-03-06T09:17:51.615Z,38.89
2023-03-06T09:20:19.026Z,37.49
2023-03-06T09:22:46.182Z,37.62
2023-03-06T09:25:14.298Z,36.92
2023-03-06T09:27:41.611Z,36.27
2023-03-06T09:30:09.055Z,37.93
2023-03-06T09:32:36.565Z,37.98
2023-03-06T09:35:03.911Z,37.18
2023-03-06T09:37:31.106Z,38.59
2023-03-06T09:39:58.503Z,39.38
2023-03-06T09:42:25.633Z,38.38
2023-03-06T09:44:56.475Z,38.01
2023-03-06T09:47:42.690Z,40.65
2023-03-06T09:50:19.307Z,40.50
2023-03-06T09:52:59.566Z,40.31
2023-03-06T09:55:27.354Z,38.81
2023-03-06T09:57:55.975Z,40.85
2023-03-06T10:00:34.290Z,39.54
2023-03-06T10:03:20.376Z,40.75
2023-03-06T10:05:49.312Z,41.62
2023-03-06T10:08:22.841Z,42.63
2023-03-06T10:10:49.986Z,42.12
2023-03-06T10:13:36.152Z,41.85
2023-03-06T10:16:06.265Z,43.88
2023-03-06T10:18:38.341Z,43.50
2023-03-06T10:21:18.752Z,42.22
2023-03-06T10:23:54.697Z,42.89
2023-03-06T10:26:36.830Z,42.43
2023-03-06T10:29:13.416Z,41.03
2023-03-06T10:31:41.162Z,40.81
2023-03-06T10:34:14.319Z,39.13
2023-03-06T10:36:41.447Z,40.04
2023-03-06T10:39:16.201Z,41.92
2023-03-06T10:41:44.724Z,41.74
2023-03-06T10:44:12.673Z,43.91
2023-03-06T10:46:46.930Z,41.80
2023-03-06T10:49:14.401Z,41.79
2023-03-06T10:51:43.196Z,42.55
2023-03-06T10:54:13.315Z,43.52
2023-03-06T10:56:44.025Z,43.37
2023-03-06T10:59:12.480Z,43.27
2023-03-06T11:01:40.390Z,43.96
2023-03-06T11:04:23.464Z,43.99
2023-03-06T11:07:09.546Z,42.84
2023-03-06T11:09:37.011Z,41.18
2023-03-06T11:12:17.638Z,41.22
2023-03-06T11:14:45.074Z,42.77
2023-03-06T11:17:28.593Z,40.99
2023-03-06T11:20:14.449Z,41.96
2023-03-06T11:22:41.578Z,41.03
2023-03-06T11:25:10.134Z,40.34
2023-03-06T11:27:38.183Z,42.54
2023-03-06T11:30:06.190Z,42.08
2023-03-06T11:32:38.263Z,42.28
2023-03-06T11:35:25.871Z,43.34
2023-03-06T11:37:54.496Z,41.81
2023-03-06T11:40:24.390Z,42.01
2023-03-06T11:42:56.445Z,42.21
2023-03-06T11:45:25.287Z,43.34
2023-03-06T11:48:10.597Z,41.58
2023-03-06T11:50:39.258Z,42.25
2023-03-06T11:53:07.150Z,40.34
2023-03-06T11:55:40.348Z,41.51
2023-03-06T11:58:07.785Z,43.14
2023-03-06T12:00:37.715Z,41.37
2023-03-06T12:03:22.205Z,41.52
2023-03-06T12:05:54.879Z,39.98
2023-03-06T12:08:26.309Z,39.33
2023-03-06T12:11:05.404Z,40.58
2023-03-06T12:13:36.003Z,40.94
2023-03-06T12:16:23.033Z,41.42
2023-03-06T12:18:52.590Z,40.70
2023-03-06T12:21:19.654Z,40.72
2023-03-06T12:24:05.601Z,39.59
2023-03-06T12:26:35.793Z,39.34
2023-03-06T12:29:06.104Z,39.82
2023-03-06T12:31:40.096Z,39.64
2023-03-06T12:34:43.085Z,38.68
2023-03-06T12:37:13.240Z,39.38
2023-03-06T12:39:46.371Z,38.25
2023-03-06T12:42:22.898Z,39.07
2023-03-06T12:45:03.036Z,40.83
2023-03-06T12:47:30.917Z,41.27
2023-03-06T12:49:59.585Z,40.08
2023-03-06T12:52:30.273Z,39.54
2023-03-06T12:55:01.571Z,39.13
2023-03-06T12:57:29.638Z,39.64
2023-03-06T12:59:56.841Z,39.42
2023-03-06T13:02:33.249Z,39.33
2023-03-06T13:05:14.910Z,38.98
2023-03-06T13:07:45.308Z,39.20
2023-03-06T13:10:25.584Z,39.35
2023-03-06T13:13:19.317Z,41.72
2023-03-06T13:15:47.049Z,40.11
2023-03-06T13:18:23.889Z,39.92
2023-03-06T13:20:57.563Z,38.87
2023-03-06T13:23:34.525Z,40.58
2023-03-06T13:26:05.517Z,38.40
2023-03-06T13:28:39.976Z,38.71
2023-03-06T13:31:12.577Z,39.12
2023-03-06T13:33:45.640Z,37.87
2023-03-06T13:36:24.873Z,37.17
2023-03-06T13:38:52.262Z,38.10
2023-03-06T13:41:22.158Z,38.92
2023-03-06T13:43:49.971Z,36.52
2023-03-06T13:46:26.505Z,37.33
2023-03-06T13:49:05.986Z,36.68
2023-03-06T13:51:37.352Z,38.05
2023-03-06T13:54:20.299Z,38.17
2023-03-06T13:57:04.333Z,37.69
2023-03-06T13:59:41.392Z,38.09
2023-03-06T14:02:27.823Z,38.28
2023-03-06T14:04:58.620Z,38.79
2023-03-06T14:07:25.800Z,40.64
2023-03-06T14:10:12.013Z,41.18
2023-03-06T14:12:42.460Z,40.90
2023-03-06T14:15:20.554Z,41.18
2023-03-06T14:17:49.873Z,41.13
2023-03-06T14:20:18.232Z,42.71
2023-03-06T14:22:45.352Z,42.95
2023-03-06T14:25:12.736Z,42.29
2023-03-06T14:27:42.217Z,42.28
2023-03-06T14:30:13.480Z,43.53
2023-03-06T14:32:41.084Z,42.22
2023-03-06T14:35:18.990Z,42.32
2023-03-06T14:37:47.843Z,42.52
2023-03-06T14:40:17.978Z,44.39
2023-03-06T14:42:45.160Z,42.72
2023-03-06T14:45:17.047Z,42.57
2023-03-06T14:47:44.662Z,42.93
2023-03-06T14:50:30.945Z,42.32
2023-03-06T14:53:04.286Z,42.36
2023-03-06T14:55:32.525Z,44.36
2023-03-06T14:58:01.436Z,42.73
2023-03-06T15:00:36.395Z,44.23
2023-03-06T15:03:05.348Z,44.60
2023-03-06T15:05:32.551Z,45.59
2023-03-06T15:08:01.280Z,44.16
2023-03-06T15:10:30.292Z,44.30
2023-03-06T15:13:07.770Z,44.42
2023-03-06T15:15:35.170Z,44.11
2023-03-06T15:18:02.304Z,44.20
2023-03-06T15:20:42.953Z,44.01
2023-03-06T15:23:17.993Z,47.21
2023-03-06T15:26:01.103Z,44.70
2023-03-06T15:28:31.047Z,44.82
2023-03-06T15:31:02.291Z,44.46
2023-03-06T15:33:29.713Z,44.30
2023-03-06T15:36:01.957Z,43.84
2023-03-06T15:38:39.933Z,43.27
2023-03-06T15:41:07.727Z,43.55
2023-03-06T15:43:38.077Z,43.53
2023-03-06T15:46:05.880Z,43.07
2023-03-06T15:48:34.125Z,42.95
2023-03-06T15:51:01.662Z,42.78
2023-03-06T15:53:29.093Z,43.40
2023-03-06T15:55:57.333Z,42.88
2023-03-06T15:58:24.873Z,44.04
2023-03-06T16:00:52.346Z,45.09
2023-03-06T16:03:19.814Z,44.17
2023-03-06T16:05:46.980Z,43.37
2023-03-06T16:08:15.051Z,42.73
2023-03-06T16:10:42.872Z,42.19
2023-03-06T16:13:11.325Z,41.35
2023-03-06T16:15:39.583Z,41.11
2023-03-06T16:18:07.425Z,40.95
2023-03-06T16:20:34.686Z,41.23
2023-03-06T16:23:05.589Z,40.66
2023-03-06T16:25:33.051Z,41.32
2023-03-06T16:28:00.363Z,40.62
2023-03-06T16:30:28.870Z,40.74
2023-03-06T16:32:56.859Z,40.68
2023-03-06T16:35:24.123Z,40.37
2023-03-06T16:37:51.457Z,40.03
2023-03-06T16:40:45.203Z,39.64
2023-03-06T16:43:13.738Z,39.56
2023-03-06T16:45:41.752Z,39.03
2023-03-06T16:48:11.330Z,39.47
2023-03-06T16:50:39.264Z,39.56
2023-03-06T16:53:06.889Z,38.88
2023-03-06T16:55:34.018Z,39.20
2023-03-06T16:58:01.221Z,39.42
2023-03-06T17:00:31.934Z,39.31
2023-03-06T17:03:00.140Z,38.76
2023-03-06T17:05:27.720Z,38.71
2023-03-06T17:07:55.284Z,39.46
2023-03-06T17:10:26.256Z,39.31
2023-03-06T17:12:53.765Z,39.01
2023-03-06T17:15:21.212Z,40.38
2023-03-06T17:17:48.742Z,39.85
2023-03-06T17:20:16.124Z,41.01
2023-03-06T17:22:43.715Z,43.43
2023-03-06T17:25:10.917Z,41.60
2023-03-06T17:27:38.061Z,41.12
2023-03-06T17:30:05.842Z,41.76
2023-03-06T17:32:33.069Z,41.30
2023-03-06T17:35:00.426Z,41.23
2023-03-06T17:37:28.056Z,41.64
2023-03-06T17:39:55.400Z,41.16
2023-03-06T17:42:22.624Z,40.88
2023-03-06T17:44:51.013Z,40.56
2023-03-06T17:47:18.253Z,40.95
2023-03-06T17:49:45.580Z,41.41
2023-03-06T17:52:13.064Z,43.01
2023-03-06T17:54:40.504Z,43.40
2023-03-06T17:57:07.740Z,45.35
2023-03-06T17:59:35.475Z,44.68
2023-03-06T18:02:02.913Z,44.17
2023-03-06T18:04:30.444Z,43.52
2023-03-06T18:06:58.386Z,45.45
2023-03-06T18:09:25.549Z,43.17
2023-03-06T18:11:53.410Z,43.29
2023-03-06T18:14:20.669Z,44.62
2023-03-06T18:16:47.989Z,43.70
2023-03-06T18:19:16.505Z,43.57
2023-03-06T18:21:43.931Z,43.49
2023-03-06T18:24:11.424Z,43.93
2023-03-06T18:26:42.182Z,43.58
2023-03-06T18:29:09.544Z,43.04
2023-03-06T18:31:37.602Z,43.44
2023-03-06T18:34:07.155Z,43.02
2023-03-06T18:36:35.945Z,43.00
2023-03-06T18:39:03.911Z,42.64
2023-03-06T18:41:31.604Z,42.89
2023-03-06T18:43:59.900Z,42.23
2023-03-06T18:46:30.793Z,42.24
2023-03-06T18:48:58.490Z,42.38
2023-03-06T18:51:25.977Z,42.18
2023-03-06T18:53:53.170Z,42.29
2023-03-06T18:56:21.132Z,42.02
2023-03-06T18:58:48.651Z,43.60
2023-03-06T19:01:16.258Z,42.53
2023-03-06T19:03:43.995Z,42.87
2023-03-06T19:06:12.514Z,42.96
2023-03-06T19:08:40.043Z,42.38
2023-03-06T19:11:09.099Z,42.52
2023-03-06T19:13:36.484Z,42.67
2023-03-06T19:16:04.232Z,42.70
2023-03-06T19:18:31.888Z,43.45
2023-03-06T19:21:18.577Z,43.31
2023-03-06T19:23:46.291Z,44.74
2023-03-06T19:26:13.713Z,44.57
2023-03-06T19:28:41.745Z,44.11
2023-03-06T19:31:09.272Z,44.03
2023-03-06T19:33:39.464Z,43.55
2023-03-06T19:36:07.730Z,43.28
2023-03-06T19:38:35.291Z,42.87
2023-03-06T19:41:02.662Z,42.93
2023-03-06T19:43:30.254Z,43.18
2023-03-06T19:45:57.937Z,43.82
2023-03-06T19:48:25.130Z,43.86
2023-03-06T19:50:52.482Z,43.28
2023-03-06T19:53:19.997Z,43.02
2023-03-06T19:55:47.734Z,42.96
2023-03-06T19:58:15.193Z,42.83
2023-03-06T20:00:42.948Z,42.70
2023-03-06T20:03:10.465Z,44.84
2023-03-06T20:05:39.567Z,43.60
2023-03-06T20:08:06.761Z,43.21
2023-03-06T20:10:36.296Z,45.73
2023-03-06T20:13:03.840Z,45.74
2023-03-06T20:15:31.066Z,44.18
2023-03-06T20:17:58.684Z,43.47
2023-03-06T20:20:26.024Z,43.40
2023-03-06T20:22:53.260Z,43.05
2023-03-06T20:25:20.966Z,43.94
2023-03-06T20:27:48.449Z,45.82
2023-03-06T20:30:15.707Z,45.03
2023-03-06T20:32:43.318Z,43.48
2023-03-06T20:35:10.678Z,43.06
2023-03-06T20:37:37.942Z,42.70
2023-03-06T20:40:05.976Z,42.61
2023-03-06T20:42:33.289Z,42.50
2023-03-06T20:45:00.439Z,42.70
2023-03-06T20:47:28.113Z,42.67
2023-03-06T20:49:55.748Z,42.32
2023-03-06T20:52:22.893Z,42.73
2023-03-06T20:54:50.463Z,42.74
2023-03-06T20:57:17.830Z,42.67
2023-03-06T20:59:45.376Z,42.30
2023-03-06T21:02:14.860Z,42.26
2023-03-06T21:04:42.305Z,42.38
2023-03-06T21:07:09.528Z,42.98
2023-03-06T21:09:37.896Z,42.66
2023-03-06T21:12:05.359Z,43.11
2023-03-06T21:14:32.544Z,42.74
2023-03-06T21:17:01.317Z,43.40
2023-03-06T21:19:28.563Z,43.50
2023-03-06T21:21:55.728Z,43.39
2023-03-06T21:24:23.182Z,42.64
2023-03-06T21:26:51.298Z,42.54
2023-03-06T21:29:18.493Z,43.77
2023-03-06T21:31:45.996Z,43.74
2023-03-06T21:34:13.259Z,43.38
2023-03-06T21:36:40.378Z,43.77
2023-03-06T21:39:07.845Z,43.16
2023-03-06T21:41:35.129Z,43.64
2023-03-06T21:44:03.601Z,43.15
2023-03-06T21:46:31.132Z,43.92
2023-03-06T21:48:58.289Z,42.83
2023-03-06T21:51:26.028Z,42.53
2023-03-06T21:53:53.665Z,42.71
2023-03-06T21:56:21.351Z,42.89
2023-03-06T21:58:48.529Z,43.18
2023-03-06T22:01:17.696Z,43.28
2023-03-06T22:03:45.327Z,43.87
2023-03-06T22:06:13.569Z,44.02
2023-03-06T22:08:41.079Z,43.67
2023-03-06T22:11:13.165Z,44.10
2023-03-06T22:13:40.557Z,45.20
2023-03-06T22:16:07.945Z,44.40
2023-03-06T22:18:35.414Z,44.56
2023-03-06T22:21:06.290Z,44.31
2023-03-06T22:23:33.408Z,44.40
2023-03-06T22:26:01.745Z,44.92
2023-03-06T22:28:28.915Z,45.48
2023-03-06T22:30:56.065Z,44.96
2023-03-06T22:33:23.519Z,44.50
2023-03-06T22:35:50.720Z,45.05
2023-03-06T22:38:19.137Z,44.81
2023-03-06T22:40:46.579Z,45.46
2023-03-06T22:43:13.807Z,45.85
2023-03-06T22:45:40.969Z,44.89
2023-03-06T22:48:11.163Z,45.74
2023-03-06T22:50:38.539Z,45.65
2023-03-06T22:53:05.824Z,45.78
2023-03-06T22:55:34.603Z,46.04
2023-03-06T22:58:01.792Z,46.35
2023-03-06T23:00:28.908Z,46.98
2023-03-06T23:02:56.303Z,46.60
2023-03-06T23:05:23.433Z,46.37
2023-03-06T23:07:51.356Z,46.01
2023-03-06T23:10:19.004Z,46.06
2023-03-06T23:13:04.598Z,45.89
2023-03-06T23:15:50.434Z,46.26
2023-03-06T23:18:36.828Z,45.82
2023-03-06T23:21:22.799Z,45.74
2023-03-06T23:24:08.254Z,45.69
2023-03-06T23:26:35.754Z,45.66
2023-03-06T23:29:04.267Z,45.56
2023-03-06T23:31:31.596Z,45.06
2023-03-06T23:34:00.733Z,45.48
2023-03-06T23:36:28.238Z,45.41
2023-03-06T23:38:55.420Z,45.60
2023-03-06T23:41:23.670Z,45.04
2023-03-06T23:43:51.403Z,45.22
2023-03-06T23:46:19.191Z,45.40
2023-03-06T23:48:46.699Z,45.13
2023-03-06T23:51:15.570Z,45.34
2023-03-06T23:53:43.170Z,44.93
2023-03-06T23:56:10.820Z,44.62
2023-03-06T23:58:38.224Z,44.85
